createdAt,value
2022-07-28T00:00:28.093Z,17.36
2022-07-28T00:03:07.470Z,17.34
2022-07-28T00:05:36.093Z,17.32
2022-07-28T00:08:05.572Z,17.32
2022-07-28T00:10:34.055Z,17.32
2022-07-28T00:13:02.528Z,17.31
2022-07-28T00:15:32.499Z,17.29
2022-07-28T00:18:01.320Z,17.29
2022-07-28T00:20:31.009Z,17.28
2022-07-28T00:22:59.486Z,17.27
2022-07-28T00:25:27.910Z,17.26
2022-07-28T00:27:56.410Z,17.23
2022-07-28T00:30:24.971Z,17.21
2022-07-28T00:32:53.646Z,17.20
2022-07-28T00:35:30.513Z,17.20
2022-07-28T00:38:01.195Z,17.20
2022-07-28T00:40:48.438Z,17.20
2022-07-28T00:43:16.881Z,17.19
2022-07-28T00:45:45.472Z,17.18
2022-07-28T00:48:13.928Z,17.16
2022-07-28T00:50:43.848Z,17.13
2022-07-28T00:53:12.548Z,17.10
2022-07-28T00:56:03.288Z,17.06
2022-07-28T00:58:31.038Z,17.02
2022-07-28T01:00:59.652Z,17.00
2022-07-28T01:03:29.617Z,16.98
2022-07-28T01:06:16.726Z,16.93
2022-07-28T01:09:22.056Z,16.89
2022-07-28T01:12:09.404Z,16.85
2022-07-28T01:14:49.846Z,16.81
2022-07-28T01:17:39.233Z,16.74
2022-07-28T01:20:34.667Z,16.68
2022-07-28T01:23:26.205Z,16.61
2022-07-28T01:26:23.647Z,16.56
2022-07-28T01:29:01.169Z,16.53
2022-07-28T01:31:43.944Z,16.51
2022-07-28T01:34:23.873Z,16.50
2022-07-28T01:37:05.020Z,16.51
2022-07-28T01:39:36.556Z,16.50
2022-07-28T01:42:07.988Z,16.49
2022-07-28T01:44:41.416Z,16.47
2022-07-28T01:47:11.945Z,16.46
2022-07-28T01:49:44.249Z,16.44
2022-07-28T01:52:13.961Z,16.42
2022-07-28T01:54:46.183Z,16.42
2022-07-28T01:57:18.117Z,16.42
2022-07-28T01:59:48.610Z,16.42
2022-07-28T02:02:21.508Z,16.43
2022-07-28T02:04:51.538Z,16.43
2022-07-28T02:07:21.435Z,16.44
2022-07-28T02:09:50.456Z,16.44
2022-07-28T02:12:20.477Z,16.45
2022-07-28T02:14:50.793Z,16.45
2022-07-28T02:17:25.657Z,16.43
2022-07-28T02:19:55.410Z,16.40
2022-07-28T02:22:27.048Z,16.35
2022-07-28T02:24:56.206Z,16.34
2022-07-28T02:27:24.580Z,16.33
2022-07-28T02:30:11.394Z,16.32
2022-07-28T02:32:55.584Z,16.30
2022-07-28T02:35:46.062Z,16.25
2022-07-28T02:38:28.278Z,16.21
2022-07-28T02:41:02.827Z,16.19
2022-07-28T02:43:50.037Z,16.15
2022-07-28T02:46:22.411Z,16.10
2022-07-28T02:48:55.119Z,16.06
2022-07-28T02:51:28.890Z,16.04
2022-07-28T02:53:58.713Z,16.01
2022-07-28T02:56:29.029Z,15.97
2022-07-28T02:58:58.852Z,15.94
2022-07-28T03:01:27.594Z,15.90
2022-07-28T03:03:58.034Z,15.84
2022-07-28T03:06:28.797Z,15.79
2022-07-28T03:08:58.133Z,15.72
2022-07-28T03:11:27.877Z,15.67
2022-07-28T03:13:56.306Z,15.63
2022-07-28T03:16:24.883Z,15.56
2022-07-28T03:18:53.325Z,15.52
2022-07-28T03:21:21.745Z,15.50
2022-07-28T03:23:51.825Z,15.44
2022-07-28T03:26:27.912Z,15.39
2022-07-28T03:28:58.122Z,15.37
2022-07-28T03:31:29.167Z,15.32
2022-07-28T03:33:57.883Z,15.26
2022-07-28T03:36:31.827Z,15.22
2022-07-28T03:39:06.262Z,15.21
2022-07-28T03:41:35.475Z,15.22
2022-07-28T03:44:04.661Z,15.20
2022-07-28T03:46:34.049Z,15.19
2022-07-28T03:49:02.546Z,15.22
2022-07-28T03:51:33.117Z,15.22
2022-07-28T03:54:01.673Z,15.24
2022-07-28T03:56:30.178Z,15.25
2022-07-28T03:58:58.637Z,15.28
2022-07-28T04:01:27.093Z,15.33
2022-07-28T04:03:55.473Z,15.37
2022-07-28T04:06:24.078Z,15.42
2022-07-28T04:08:52.441Z,15.47
2022-07-28T04:11:20.813Z,15.51
2022-07-28T04:13:49.546Z,15.55
2022-07-28T04:16:18.155Z,15.59
2022-07-28T04:18:47.650Z,15.64
2022-07-28T04:21:16.462Z,15.69
2022-07-28T04:23:44.872Z,15.75
2022-07-28T04:26:13.833Z,15.80
2022-07-28T04:28:42.272Z,15.86
2022-07-28T04:31:10.776Z,15.90
2022-07-28T04:33:39.785Z,15.95
2022-07-28T04:36:08.347Z,15.98
2022-07-28T04:38:37.865Z,16.00
2022-07-28T04:41:06.501Z,16.02
2022-07-28T04:43:34.911Z,16.03
2022-07-28T04:46:03.230Z,16.04
2022-07-28T04:48:31.475Z,16.05
2022-07-28T04:50:59.879Z,16.07
2022-07-28T04:53:29.526Z,16.10
2022-07-28T04:55:58.231Z,16.17
2022-07-28T04:58:27.825Z,16.28
2022-07-28T05:00:59.247Z,16.48
2022-07-28T05:03:30.409Z,16.73
2022-07-28T05:06:01.007Z,17.06
2022-07-28T05:08:29.378Z,17.33
2022-07-28T05:10:57.733Z,17.61
2022-07-28T05:13:30.392Z,17.81
2022-07-28T05:16:02.935Z,17.91
2022-07-28T05:18:31.200Z,17.92
2022-07-28T05:20:59.585Z,17.92
2022-07-28T05:23:28.073Z,17.95
2022-07-28T05:25:56.974Z,17.99
2022-07-28T05:28:25.689Z,18.01
2022-07-28T05:30:54.439Z,18.00
2022-07-28T05:33:22.700Z,18.01
2022-07-28T05:36:00.039Z,18.04
2022-07-28T05:38:29.188Z,18.08
2022-07-28T05:40:58.102Z,18.11
2022-07-28T05:43:26.506Z,18.17
2022-07-28T05:45:54.983Z,18.23
2022-07-28T05:48:23.482Z,18.28
2022-07-28T05:50:51.689Z,18.30
2022-07-28T05:53:21.316Z,18.35
2022-07-28T05:56:00.633Z,18.37
2022-07-28T05:58:31.387Z,18.46
2022-07-28T06:01:03.780Z,18.55
2022-07-28T06:03:38.441Z,18.69
2022-07-28T06:06:15.019Z,18.80
2022-07-28T06:08:46.765Z,18.83
2022-07-28T06:11:21.651Z,18.91
2022-07-28T06:13:52.572Z,18.92
2022-07-28T06:16:23.055Z,18.95
2022-07-28T06:18:52.622Z,18.94
2022-07-28T06:21:23.529Z,18.92
2022-07-28T06:23:51.979Z,18.92
2022-07-28T06:26:23.480Z,18.96
2022-07-28T06:28:52.283Z,19.09
2022-07-28T06:31:20.728Z,19.28
2022-07-28T06:33:49.015Z,19.47
2022-07-28T06:36:17.451Z,19.52
2022-07-28T06:38:45.718Z,19.62
2022-07-28T06:41:13.971Z,19.74
2022-07-28T06:43:42.288Z,19.90
2022-07-28T06:46:10.645Z,20.03
2022-07-28T06:48:39.634Z,20.14
2022-07-28T06:51:08.206Z,20.30
2022-07-28T06:53:36.453Z,20.49
2022-07-28T06:56:05.400Z,20.53
2022-07-28T06:58:34.513Z,20.65
2022-07-28T07:01:08.010Z,20.74
2022-07-28T07:03:36.550Z,20.80
2022-07-28T07:06:04.849Z,20.96
2022-07-28T07:08:34.023Z,21.02
2022-07-28T07:11:02.444Z,21.11
2022-07-28T07:13:30.771Z,21.38
2022-07-28T07:15:59.170Z,21.61
2022-07-28T07:18:27.787Z,21.71
2022-07-28T07:20:57.922Z,21.87
2022-07-28T07:23:26.124Z,21.97
2022-07-28T07:25:54.582Z,22.06
2022-07-28T07:28:22.864Z,21.95
2022-07-28T07:30:51.160Z,21.88
2022-07-28T07:33:19.763Z,21.88
2022-07-28T07:35:48.834Z,21.92
2022-07-28T07:38:17.246Z,21.97
2022-07-28T07:40:45.646Z,21.92
2022-07-28T07:43:14.046Z,21.76
2022-07-28T07:45:42.337Z,21.65
2022-07-28T07:48:10.709Z,21.58
2022-07-28T07:50:39.069Z,21.62
2022-07-28T07:53:07.313Z,21.92
2022-07-28T07:55:37.734Z,22.13
2022-07-28T07:58:07.169Z,22.15
2022-07-28T08:00:35.985Z,22.20
2022-07-28T08:03:04.788Z,22.24
2022-07-28T08:05:39.879Z,22.21
2022-07-28T08:08:08.883Z,22.10
2022-07-28T08:10:39.534Z,21.96
2022-07-28T08:13:08.406Z,21.82
2022-07-28T08:15:36.860Z,21.70
2022-07-28T08:18:05.243Z,21.60
2022-07-28T08:20:33.491Z,21.49
2022-07-28T08:23:01.830Z,21.51
2022-07-28T08:25:30.030Z,21.74
2022-07-28T08:27:58.286Z,22.05
2022-07-28T08:30:31.994Z,22.29
2022-07-28T08:33:03.143Z,22.46
2022-07-28T08:35:34.626Z,22.79
2022-07-28T08:38:07.185Z,23.13
2022-07-28T08:40:38.836Z,23.30
2022-07-28T08:43:23.710Z,23.38
2022-07-28T08:45:58.067Z,23.47
2022-07-28T08:48:31.627Z,23.48
2022-07-28T08:51:09.710Z,23.50
2022-07-28T08:53:40.301Z,23.71
2022-07-28T08:56:12.414Z,23.91
2022-07-28T08:58:41.072Z,24.02
2022-07-28T09:01:11.061Z,24.07
2022-07-28T09:03:39.835Z,24.24
2022-07-28T09:06:08.460Z,24.24
2022-07-28T09:08:37.404Z,24.18
2022-07-28T09:11:08.360Z,24.19
2022-07-28T09:13:36.829Z,24.27
2022-07-28T09:16:07.009Z,24.29
2022-07-28T09:18:35.505Z,24.38
2022-07-28T09:21:03.889Z,24.56
2022-07-28T09:23:46.633Z,24.77
2022-07-28T09:26:15.632Z,24.90
2022-07-28T09:28:55.273Z,25.13
2022-07-28T09:31:26.109Z,25.29
2022-07-28T09:33:56.140Z,25.29
2022-07-28T09:36:24.659Z,25.41
2022-07-28T09:38:54.323Z,25.57
2022-07-28T09:41:24.075Z,25.77
2022-07-28T09:43:55.372Z,25.94
2022-07-28T09:46:26.138Z,26.07
2022-07-28T09:49:01.324Z,26.15
2022-07-28T09:51:31.943Z,26.13
2022-07-28T09:54:12.710Z,26.11
2022-07-28T09:56:44.289Z,26.06
2022-07-28T09:59:14.898Z,26.07
2022-07-28T10:01:52.685Z,26.10
2022-07-28T10:04:31.757Z,26.28
2022-07-28T10:07:14.160Z,26.53
2022-07-28T10:09:43.457Z,26.82
2022-07-28T10:12:20.956Z,26.84
2022-07-28T10:14:52.063Z,26.64
2022-07-28T10:17:34.361Z,26.57
2022-07-28T10:20:06.176Z,26.60
2022-07-28T10:22:42.782Z,26.73
2022-07-28T10:25:14.395Z,26.97
2022-07-28T10:27:47.632Z,27.00
2022-07-28T10:30:16.245Z,26.94
2022-07-28T10:32:46.272Z,26.95
2022-07-28T10:35:17.606Z,27.01
2022-07-28T10:37:54.150Z,27.09
2022-07-28T10:40:26.849Z,27.13
2022-07-28T10:42:56.740Z,27.14
2022-07-28T10:45:42.032Z,27.24
2022-07-28T10:48:15.569Z,27.29
2022-07-28T10:50:45.028Z,27.36
2022-07-28T10:53:26.415Z,27.42
2022-07-28T10:56:07.729Z,27.59
2022-07-28T10:59:10.522Z,27.95
2022-07-28T11:01:50.511Z,28.25
2022-07-28T11:04:41.060Z,28.34
2022-07-28T11:07:15.259Z,28.53
2022-07-28T11:09:44.868Z,28.74
2022-07-28T11:12:16.041Z,28.87
2022-07-28T11:14:45.103Z,28.94
2022-07-28T11:17:15.000Z,29.07
2022-07-28T11:22:35.003Z,28.87
2022-07-28T11:25:18.444Z,28.73
2022-07-28T11:27:50.916Z,28.42
2022-07-28T11:30:21.441Z,28.63
2022-07-28T11:32:55.839Z,28.92
2022-07-28T11:35:25.577Z,29.07
2022-07-28T11:38:03.320Z,29.13
2022-07-28T11:40:42.591Z,28.77
2022-07-28T11:43:36.898Z,28.31
2022-07-28T11:46:11.191Z,28.09
2022-07-28T11:48:43.736Z,27.87
2022-07-28T11:51:13.360Z,27.84
2022-07-28T11:53:53.753Z,27.94
2022-07-28T11:56:27.937Z,27.88
2022-07-28T11:59:01.328Z,27.97
2022-07-28T12:01:31.985Z,28.28
2022-07-28T12:04:01.578Z,28.36
2022-07-28T12:06:37.522Z,28.15
2022-07-28T12:09:08.423Z,28.22
2022-07-28T12:11:38.915Z,28.25
2022-07-28T12:14:09.693Z,28.22
2022-07-28T12:16:41.253Z,28.40
2022-07-28T12:19:11.283Z,28.57
2022-07-28T12:21:47.697Z,28.70
2022-07-28T12:24:20.113Z,28.60
2022-07-28T12:26:50.574Z,28.76
2022-07-28T12:29:20.776Z,28.74
2022-07-28T12:32:01.075Z,28.97
2022-07-28T12:34:31.094Z,29.07
2022-07-28T12:37:04.569Z,29.36
2022-07-28T12:39:42.851Z,29.37
2022-07-28T12:42:13.397Z,29.36
2022-07-28T12:44:43.958Z,29.34
2022-07-28T12:47:13.767Z,29.05
2022-07-28T12:49:44.345Z,28.33
2022-07-28T12:52:24.813Z,27.76
2022-07-28T12:54:55.774Z,27.47
2022-07-28T12:57:48.146Z,27.74
2022-07-28T13:00:22.882Z,27.95
2022-07-28T13:02:56.187Z,28.18
2022-07-28T13:05:33.211Z,28.53
2022-07-28T13:08:03.623Z,28.75
2022-07-28T13:10:33.516Z,28.77
2022-07-28T13:13:07.775Z,28.83
2022-07-28T13:15:36.275Z,28.69
2022-07-28T13:18:05.163Z,28.15
2022-07-28T13:20:50.718Z,27.76
2022-07-28T13:23:19.054Z,27.39
2022-07-28T13:25:47.891Z,26.99
2022-07-28T13:28:28.573Z,26.59
2022-07-28T13:30:56.936Z,26.53
2022-07-28T13:33:26.948Z,26.48
2022-07-28T13:35:56.698Z,26.47
2022-07-28T13:38:25.148Z,26.50
2022-07-28T13:40:53.463Z,26.73
2022-07-28T13:43:21.843Z,26.92
2022-07-28T13:45:50.180Z,27.16
2022-07-28T13:48:18.520Z,27.32
2022-07-28T13:50:48.163Z,27.28
2022-07-28T13:53:17.867Z,27.41
2022-07-28T13:55:46.416Z,27.49
2022-07-28T13:58:15.341Z,27.56
2022-07-28T14:00:43.889Z,27.62
2022-07-28T14:03:12.964Z,27.63
2022-07-28T14:05:42.276Z,27.72
2022-07-28T14:08:12.539Z,27.82
2022-07-28T14:10:40.914Z,27.84
2022-07-28T14:13:16.582Z,27.72
2022-07-28T14:15:47.124Z,27.51
2022-07-28T14:18:15.377Z,27.30
2022-07-28T14:20:43.703Z,27.13
2022-07-28T14:23:11.926Z,27.00
2022-07-28T14:25:49.213Z,26.80
2022-07-28T14:28:18.716Z,26.50
2022-07-28T14:30:46.957Z,26.45
2022-07-28T14:33:15.307Z,26.44
2022-07-28T14:35:43.633Z,26.48
2022-07-28T14:38:51.178Z,26.54
2022-07-28T14:41:01.905Z,26.55
2022-07-28T14:43:30.257Z,26.40
2022-07-28T14:46:13.611Z,26.23
2022-07-28T14:48:46.386Z,26.17
2022-07-28T14:51:15.947Z,26.14
2022-07-28T14:53:46.416Z,26.12
2022-07-28T14:56:20.112Z,26.00
2022-07-28T14:58:48.376Z,25.89
2022-07-28T15:01:16.732Z,25.84
2022-07-28T15:03:45.603Z,25.80
2022-07-28T15:06:13.845Z,25.76
2022-07-28T15:08:42.049Z,25.67
2022-07-28T15:11:10.423Z,25.54
2022-07-28T15:13:38.714Z,25.47
2022-07-28T15:16:07.309Z,25.42
2022-07-28T15:18:36.035Z,25.36
2022-07-28T15:21:06.694Z,25.28
2022-07-28T15:23:34.893Z,25.20
2022-07-28T15:26:03.185Z,25.06
2022-07-28T15:28:31.553Z,24.94
2022-07-28T15:30:59.953Z,24.84
2022-07-28T15:33:28.274Z,24.76
2022-07-28T15:36:00.596Z,24.70
2022-07-28T15:38:31.501Z,24.64
2022-07-28T15:41:00.145Z,24.58
2022-07-28T15:43:30.734Z,24.51
2022-07-28T15:46:06.176Z,24.46
2022-07-28T15:48:34.961Z,24.39
2022-07-28T15:51:03.327Z,24.34
2022-07-28T15:53:31.715Z,24.26
2022-07-28T15:56:00.019Z,24.21
2022-07-28T15:58:28.391Z,24.17
2022-07-28T16:00:56.709Z,24.11
2022-07-28T16:03:30.679Z,24.06
2022-07-28T16:05:59.300Z,24.02
2022-07-28T16:08:27.682Z,23.98
2022-07-28T16:10:56.018Z,23.92
2022-07-28T16:13:33.391Z,23.89
2022-07-28T16:16:10.779Z,23.87
2022-07-28T16:18:42.875Z,23.86
2022-07-28T16:21:11.596Z,23.83
2022-07-28T16:23:39.937Z,23.78
2022-07-28T16:26:09.529Z,23.74
2022-07-28T16:28:38.099Z,23.70
2022-07-28T16:31:06.542Z,23.67
2022-07-28T16:33:34.854Z,23.63
2022-07-28T16:36:03.524Z,23.60
2022-07-28T16:38:31.800Z,23.57
2022-07-28T16:41:00.086Z,23.53
2022-07-28T16:43:28.581Z,23.49
2022-07-28T16:45:56.912Z,23.46
2022-07-28T16:48:25.177Z,23.43
2022-07-28T16:50:56.826Z,23.38
2022-07-28T16:53:25.206Z,23.34
2022-07-28T16:55:53.606Z,23.30
2022-07-28T16:58:22.717Z,23.25
2022-07-28T17:00:51.014Z,23.22
2022-07-28T17:03:19.345Z,23.17
2022-07-28T17:05:48.653Z,23.13
2022-07-28T17:08:16.962Z,23.08
2022-07-28T17:10:46.757Z,23.03
2022-07-28T17:13:16.442Z,22.98
2022-07-28T17:15:44.717Z,22.94
2022-07-28T17:18:13.076Z,22.90
2022-07-28T17:20:42.100Z,22.86
2022-07-28T17:23:10.515Z,22.82
2022-07-28T17:26:09.015Z,22.75
2022-07-28T17:28:27.563Z,22.65
2022-07-28T17:30:56.105Z,22.57
2022-07-28T17:33:26.918Z,22.49
2022-07-28T17:35:56.301Z,22.43
2022-07-28T17:38:30.986Z,22.37
2022-07-28T17:41:04.479Z,22.29
2022-07-28T17:43:33.070Z,22.22
2022-07-28T17:46:03.011Z,22.12
2022-07-28T17:48:38.527Z,22.01
2022-07-28T17:51:07.022Z,21.90
2022-07-28T17:53:39.044Z,21.81
2022-07-28T17:56:08.998Z,21.71
2022-07-28T17:58:38.311Z,21.61
2022-07-28T18:01:12.380Z,21.49
2022-07-28T18:03:58.060Z,21.35
2022-07-28T18:06:32.700Z,21.22
2022-07-28T18:09:08.311Z,21.09
2022-07-28T18:11:57.406Z,20.93
2022-07-28T18:14:28.384Z,20.80
2022-07-28T18:16:57.980Z,20.65
2022-07-28T18:19:27.211Z,20.48
2022-07-28T18:21:56.745Z,20.33
2022-07-28T18:24:26.598Z,20.20
2022-07-28T18:26:54.999Z,20.05
2022-07-28T18:29:24.845Z,19.91
2022-07-28T18:31:53.646Z,19.80
2022-07-28T18:34:24.744Z,19.63
2022-07-28T18:36:54.509Z,19.53
2022-07-28T18:39:22.983Z,19.44
2022-07-28T18:41:55.499Z,19.34
2022-07-28T18:44:23.769Z,19.24
2022-07-28T18:46:52.192Z,19.16
2022-07-28T18:49:21.763Z,19.07
2022-07-28T18:51:50.103Z,18.98
2022-07-28T18:54:27.148Z,18.87
2022-07-28T18:56:56.458Z,18.72
2022-07-28T18:59:25.121Z,18.62
2022-07-28T19:01:53.556Z,18.54
2022-07-28T19:04:22.895Z,18.44
2022-07-28T19:06:51.535Z,18.35
2022-07-28T19:09:20.165Z,18.26
2022-07-28T19:11:48.505Z,18.15
2022-07-28T19:14:17.558Z,18.05
2022-07-28T19:16:46.357Z,17.96
2022-07-28T19:19:14.839Z,17.86
2022-07-28T19:21:43.870Z,17.76
2022-07-28T19:24:14.186Z,17.65
2022-07-28T19:26:45.363Z,17.55
2022-07-28T19:29:14.090Z,17.46
2022-07-28T19:31:42.981Z,17.38
2022-07-28T19:34:11.511Z,17.27
2022-07-28T19:36:41.851Z,17.18
2022-07-28T19:39:12.315Z,17.11
2022-07-28T19:41:40.933Z,17.06
2022-07-28T19:44:09.616Z,17.02
2022-07-28T19:46:39.274Z,16.98
2022-07-28T19:49:09.369Z,16.94
2022-07-28T19:51:38.383Z,16.89
2022-07-28T19:54:06.737Z,16.83
2022-07-28T19:56:35.144Z,16.76
2022-07-28T19:59:03.397Z,16.71
2022-07-28T20:01:31.841Z,16.65
2022-07-28T20:04:05.001Z,16.59
2022-07-28T20:06:34.517Z,16.48
2022-07-28T20:09:04.449Z,16.40
2022-07-28T20:11:33.203Z,16.34
2022-07-28T20:14:01.706Z,16.28
2022-07-28T20:16:30.608Z,16.22
2022-07-28T20:18:59.547Z,16.18
2022-07-28T20:21:27.890Z,16.14
2022-07-28T20:23:57.311Z,16.08
2022-07-28T20:26:26.966Z,16.01
2022-07-28T20:28:58.481Z,15.93
2022-07-28T20:31:27.090Z,15.87
2022-07-28T20:33:56.671Z,15.84
2022-07-28T20:36:29.503Z,15.79
2022-07-28T20:38:58.271Z,15.72
2022-07-28T20:41:26.510Z,15.68
2022-07-28T20:44:26.052Z,15.63
2022-07-28T20:46:43.040Z,15.60
2022-07-28T20:49:11.295Z,15.58
2022-07-28T20:51:39.781Z,15.59
2022-07-28T20:54:19.515Z,15.58
2022-07-28T20:56:47.931Z,15.55
2022-07-28T20:59:16.444Z,15.51
2022-07-28T21:01:44.806Z,15.50
2022-07-28T21:04:13.683Z,15.46
2022-07-28T21:06:51.161Z,15.42
2022-07-28T21:09:21.221Z,15.39
2022-07-28T21:11:49.583Z,15.38
2022-07-28T21:14:19.028Z,15.35
2022-07-28T21:16:47.775Z,15.32
2022-07-28T21:19:16.056Z,15.30
2022-07-28T21:21:44.283Z,15.27
2022-07-28T21:24:12.631Z,15.23
2022-07-28T21:26:42.934Z,15.18
2022-07-28T21:29:12.476Z,15.14
2022-07-28T21:32:02.326Z,15.10
2022-07-28T21:34:33.965Z,15.07
2022-07-28T21:37:07.079Z,15.02
2022-07-28T21:39:36.740Z,14.98
2022-07-28T21:42:08.094Z,14.95
2022-07-28T21:44:37.628Z,14.91
2022-07-28T21:47:06.097Z,14.86
2022-07-28T21:49:34.378Z,14.82
2022-07-28T21:52:02.597Z,14.78
2022-07-28T21:54:30.999Z,14.74
2022-07-28T21:56:59.274Z,14.69
2022-07-28T21:59:27.471Z,14.64
2022-07-28T22:01:55.773Z,14.61
2022-07-28T22:04:24.059Z,14.56
2022-07-28T22:06:54.201Z,14.55
2022-07-28T22:09:22.637Z,14.52
2022-07-28T22:11:50.925Z,14.51
2022-07-28T22:14:19.454Z,14.46
2022-07-28T22:16:48.051Z,14.41
2022-07-28T22:19:16.250Z,14.36
2022-07-28T22:21:44.443Z,14.33
2022-07-28T22:24:13.045Z,14.33
2022-07-28T22:26:41.494Z,14.32
2022-07-28T22:29:09.673Z,14.33
2022-07-28T22:31:38.000Z,14.34
2022-07-28T22:34:06.235Z,14.31
2022-07-28T22:36:34.482Z,14.31
2022-07-28T22:39:02.748Z,14.32
2022-07-28T22:41:30.974Z,14.33
2022-07-28T22:43:59.257Z,14.32
2022-07-28T22:46:27.609Z,14.31
2022-07-28T22:48:55.897Z,14.32
2022-07-28T22:51:24.158Z,14.34
2022-07-28T22:53:52.400Z,14.34
2022-07-28T22:56:20.642Z,14.34
2022-07-28T22:58:49.924Z,14.34
2022-07-28T23:01:18.189Z,14.33
2022-07-28T23:03:47.393Z,14.32
2022-07-28T23:06:15.973Z,14.32
2022-07-28T23:08:44.211Z,14.31
2022-07-28T23:11:12.378Z,14.29
2022-07-28T23:13:41.099Z,14.28
2022-07-28T23:16:11.004Z,14.25
2022-07-28T23:18:40.514Z,14.24
2022-07-28T23:21:09.197Z,14.22
2022-07-28T23:23:38.105Z,14.22
2022-07-28T23:26:06.314Z,14.18
2022-07-28T23:28:36.518Z,14.14
2022-07-28T23:31:05.547Z,14.11
2022-07-28T23:33:55.061Z,14.10
2022-07-28T23:36:27.455Z,14.08
2022-07-28T23:38:57.729Z,14.06
2022-07-28T23:41:27.137Z,14.06
2022-07-28T23:43:55.588Z,14.04
2022-07-28T23:46:24.617Z,14.03
2022-07-28T23:48:53.120Z,14.03
2022-07-28T23:51:22.615Z,14.01
2022-07-28T23:54:09.431Z,14.02
2022-07-28T23:56:38.407Z,14.01
2022-07-28T23:59:09.246Z,14.01
